sensor_id;sensor_type;location;lat;lon;timestamp;temperature;humidity
35680;DHT22;21803;53.586;10.040;2023-02-01T00:01:44;18.00;44.80
35680;DHT22;21803;53.586;10.040;2023-02-01T00:04:09;18.10;44.80
35680;DHT22;21803;53.586;10.040;2023-02-01T00:06:35;18.10;44.80
35680;DHT22;21803;53.586;10.040;2023-02-01T00:09:01;18.10;44.80
35680;DHT22;21803;53.586;10.040;2023-02-01T00:11:26;18.10;44.80
35680;DHT22;21803;53.586;10.040;2023-02-01T00:13:52;18.10;44.70
35680;DHT22;21803;53.586;10.040;2023-02-01T00:16:20;18.10;44.70
35680;DHT22;21803;53.586;10.040;2023-02-01T00:18:48;18.10;44.70
35680;DHT22;21803;53.586;10.040;2023-02-01T00:21:16;18.10;44.80
35680;DHT22;21803;53.586;10.040;2023-02-01T00:23:42;18.10;44.70
35680;DHT22;21803;53.586;10.040;2023-02-01T00:26:14;18.10;44.70
35680;DHT22;21803;53.586;10.040;2023-02-01T00:28:40;18.10;44.70
35680;DHT22;21803;53.586;10.040;2023-02-01T00:31:06;18.10;44.60
35680;DHT22;21803;53.586;10.040;2023-02-01T00:33:32;18.10;44.70
35680;DHT22;21803;53.586;10.040;2023-02-01T00:35:59;18.10;44.70
35680;DHT22;21803;53.586;10.040;2023-02-01T00:38:26;18.10;44.70
35680;DHT22;21803;53.586;10.040;2023-02-01T00:40:52;18.10;44.70
35680;DHT22;21803;53.586;10.040;2023-02-01T00:43:18;18.10;44.60
35680;DHT22;21803;53.586;10.040;2023-02-01T00:45:45;18.10;44.70
35680;DHT22;21803;53.586;10.040;2023-02-01T00:48:11;18.10;44.70
35680;DHT22;21803;53.586;10.040;2023-02-01T00:50:44;18.10;44.70
35680;DHT22;21803;53.586;10.040;2023-02-01T00:53:10;18.10;44.80
35680;DHT22;21803;53.586;10.040;2023-02-01T00:55:36;18.10;44.70
35680;DHT22;21803;53.586;10.040;2023-02-01T00:58:02;18.10;44.60
35680;DHT22;21803;53.586;10.040;2023-02-01T01:00:27;18.10;44.60
35680;DHT22;21803;53.586;10.040;2023-02-01T01:02:53;18.10;44.60
35680;DHT22;21803;53.586;10.040;2023-02-01T01:05:19;18.10;44.60
35680;DHT22;21803;53.586;10.040;2023-02-01T01:07:44;18.10;44.60
35680;DHT22;21803;53.586;10.040;2023-02-01T01:10:10;18.10;44.60
35680;DHT22;21803;53.586;10.040;2023-02-01T01:12:36;18.10;44.60
35680;DHT22;21803;53.586;10.040;2023-02-01T01:15:01;18.10;44.60
35680;DHT22;21803;53.586;10.040;2023-02-01T01:17:27;18.10;44.60
35680;DHT22;21803;53.586;10.040;2023-02-01T01:22:20;18.10;44.60
35680;DHT22;21803;53.586;10.040;2023-02-01T01:24:46;18.10;44.60
35680;DHT22;21803;53.586;10.040;2023-02-01T01:27:11;18.10;44.60
35680;DHT22;21803;53.586;10.040;2023-02-01T01:29:37;18.10;44.60
35680;DHT22;21803;53.586;10.040;2023-02-01T01:32:02;18.10;44.60
35680;DHT22;21803;53.586;10.040;2023-02-01T01:34:28;18.10;44.60
35680;DHT22;21803;53.586;10.040;2023-02-01T01:36:54;18.10;44.60
35680;DHT22;21803;53.586;10.040;2023-02-01T01:39:19;18.10;44.60
35680;DHT22;21803;53.586;10.040;2023-02-01T01:41:45;18.10;44.60
35680;DHT22;21803;53.586;10.040;2023-02-01T01:47:14;18.00;44.50
35680;DHT22;21803;53.586;10.040;2023-02-01T01:49:40;18.10;44.60
35680;DHT22;21803;53.586;10.040;2023-02-01T01:52:07;18.10;44.60
35680;DHT22;21803;53.586;10.040;2023-02-01T01:54:37;18.10;44.60
35680;DHT22;21803;53.586;10.040;2023-02-01T01:57:07;18.10;44.60
35680;DHT22;21803;53.586;10.040;2023-02-01T01:59:35;18.10;44.60
35680;DHT22;21803;53.586;10.040;2023-02-01T02:02:03;18.10;44.50
35680;DHT22;21803;53.586;10.040;2023-02-01T02:04:31;18.10;44.60
35680;DHT22;21803;53.586;10.040;2023-02-01T02:06:59;18.10;44.60
35680;DHT22;21803;53.586;10.040;2023-02-01T02:09:25;18.10;44.50
35680;DHT22;21803;53.586;10.040;2023-02-01T02:11:51;18.10;44.50
35680;DHT22;21803;53.586;10.040;2023-02-01T02:14:19;18.10;44.50
35680;DHT22;21803;53.586;10.040;2023-02-01T02:17:09;18.10;44.50
35680;DHT22;21803;53.586;10.040;2023-02-01T02:31:42;18.10;44.90
35680;DHT22;21803;53.586;10.040;2023-02-01T02:35:00;18.10;44.60
35680;DHT22;21803;53.586;10.040;2023-02-01T02:46:02;18.10;44.50
35680;DHT22;21803;53.586;10.040;2023-02-01T02:49:15;18.10;44.60
35680;DHT22;21803;53.586;10.040;2023-02-01T02:52:02;18.10;44.50
35680;DHT22;21803;53.586;10.040;2023-02-01T02:54:50;18.10;44.50
35680;DHT22;21803;53.586;10.040;2023-02-01T02:57:25;18.10;44.50
35680;DHT22;21803;53.586;10.040;2023-02-01T03:00:15;18.00;44.40
35680;DHT22;21803;53.586;10.040;2023-02-01T03:03:00;17.10;44.10
35680;DHT22;21803;53.586;10.040;2023-02-01T03:05:46;18.10;44.60
35680;DHT22;21803;53.586;10.040;2023-02-01T03:08:15;18.10;44.50
35680;DHT22;21803;53.586;10.040;2023-02-01T03:10:57;18.10;44.60
35680;DHT22;21803;53.586;10.040;2023-02-01T03:13:47;18.00;44.50
35680;DHT22;21803;53.586;10.040;2023-02-01T03:16:35;18.10;44.50
35680;DHT22;21803;53.586;10.040;2023-02-01T03:19:18;18.10;44.50
35680;DHT22;21803;53.586;10.040;2023-02-01T03:24:20;18.10;44.50
35680;DHT22;21803;53.586;10.040;2023-02-01T03:26:52;18.10;44.50
35680;DHT22;21803;53.586;10.040;2023-02-01T03:29:24;18.10;44.50
35680;DHT22;21803;53.586;10.040;2023-02-01T03:31:50;18.10;44.50
35680;DHT22;21803;53.586;10.040;2023-02-01T03:34:16;18.00;44.40
35680;DHT22;21803;53.586;10.040;2023-02-01T03:37:02;18.10;44.50
35680;DHT22;21803;53.586;10.040;2023-02-01T03:39:36;18.10;44.50
35680;DHT22;21803;53.586;10.040;2023-02-01T03:42:10;18.10;44.50
35680;DHT22;21803;53.586;10.040;2023-02-01T03:44:46;18.10;44.50
35680;DHT22;21803;53.586;10.040;2023-02-01T03:47:20;18.10;44.50
35680;DHT22;21803;53.586;10.040;2023-02-01T03:49:50;18.10;44.50
35680;DHT22;21803;53.586;10.040;2023-02-01T03:52:22;18.10;44.50
35680;DHT22;21803;53.586;10.040;2023-02-01T03:54:49;18.00;44.40
35680;DHT22;21803;53.586;10.040;2023-02-01T03:57:19;18.00;44.40
35680;DHT22;21803;53.586;10.040;2023-02-01T03:59:47;18.00;44.40
35680;DHT22;21803;53.586;10.040;2023-02-01T04:02:12;18.10;44.50
35680;DHT22;21803;53.586;10.040;2023-02-01T04:04:38;18.10;44.50
35680;DHT22;21803;53.586;10.040;2023-02-01T04:07:03;18.10;44.50
35680;DHT22;21803;53.586;10.040;2023-02-01T04:09:29;18.10;44.50
35680;DHT22;21803;53.586;10.040;2023-02-01T04:11:55;18.00;44.50
35680;DHT22;21803;53.586;10.040;2023-02-01T04:14:20;18.10;44.50
35680;DHT22;21803;53.586;10.040;2023-02-01T04:16:46;18.10;44.50
35680;DHT22;21803;53.586;10.040;2023-02-01T04:19:12;18.10;44.50
35680;DHT22;21803;53.586;10.040;2023-02-01T04:21:37;18.10;44.50
35680;DHT22;21803;53.586;10.040;2023-02-01T04:24:03;18.10;44.50
35680;DHT22;21803;53.586;10.040;2023-02-01T04:26:29;18.10;44.50
35680;DHT22;21803;53.586;10.040;2023-02-01T04:28:54;18.10;44.50
35680;DHT22;21803;53.586;10.040;2023-02-01T04:31:20;18.10;44.50
35680;DHT22;21803;53.586;10.040;2023-02-01T04:33:54;18.10;44.50
35680;DHT22;21803;53.586;10.040;2023-02-01T04:36:21;18.00;44.40
35680;DHT22;21803;53.586;10.040;2023-02-01T04:38:50;18.10;44.50
35680;DHT22;21803;53.586;10.040;2023-02-01T04:41:16;18.10;44.50
35680;DHT22;21803;53.586;10.040;2023-02-01T04:43:46;18.10;44.50
35680;DHT22;21803;53.586;10.040;2023-02-01T04:46:11;18.10;44.50
35680;DHT22;21803;53.586;10.040;2023-02-01T04:48:37;18.10;44.50
35680;DHT22;21803;53.586;10.040;2023-02-01T04:51:02;18.10;44.50
35680;DHT22;21803;53.586;10.040;2023-02-01T04:53:28;18.10;44.40
35680;DHT22;21803;53.586;10.040;2023-02-01T04:55:55;18.10;44.50
35680;DHT22;21803;53.586;10.040;2023-02-01T04:58:20;18.10;44.50
35680;DHT22;21803;53.586;10.040;2023-02-01T05:00:46;18.10;44.50
35680;DHT22;21803;53.586;10.040;2023-02-01T05:03:11;18.20;44.50
35680;DHT22;21803;53.586;10.040;2023-02-01T05:05:37;18.10;44.50
35680;DHT22;21803;53.586;10.040;2023-02-01T05:08:03;18.10;44.50
35680;DHT22;21803;53.586;10.040;2023-02-01T05:10:28;18.10;44.50
35680;DHT22;21803;53.586;10.040;2023-02-01T05:12:54;18.10;44.50
35680;DHT22;21803;53.586;10.040;2023-02-01T05:15:38;18.10;44.50
35680;DHT22;21803;53.586;10.040;2023-02-01T05:18:03;18.10;44.40
35680;DHT22;21803;53.586;10.040;2023-02-01T05:20:29;18.10;44.50
35680;DHT22;21803;53.586;10.040;2023-02-01T05:22:54;18.10;44.50
35680;DHT22;21803;53.586;10.040;2023-02-01T05:25:20;18.10;44.50
35680;DHT22;21803;53.586;10.040;2023-02-01T05:27:45;18.00;44.40
35680;DHT22;21803;53.586;10.040;2023-02-01T05:30:11;18.10;44.50
35680;DHT22;21803;53.586;10.040;2023-02-01T05:32:37;18.10;44.40
35680;DHT22;21803;53.586;10.040;2023-02-01T05:35:03;18.10;44.50
35680;DHT22;21803;53.586;10.040;2023-02-01T05:37:28;18.10;44.50
35680;DHT22;21803;53.586;10.040;2023-02-01T05:39:54;18.10;44.50
35680;DHT22;21803;53.586;10.040;2023-02-01T05:42:19;18.10;44.50
35680;DHT22;21803;53.586;10.040;2023-02-01T05:44:45;18.10;44.50
35680;DHT22;21803;53.586;10.040;2023-02-01T05:47:10;18.10;44.50
35680;DHT22;21803;53.586;10.040;2023-02-01T05:49:36;18.10;44.50
35680;DHT22;21803;53.586;10.040;2023-02-01T05:52:01;18.10;44.50
35680;DHT22;21803;53.586;10.040;2023-02-01T05:54:27;18.10;44.50
35680;DHT22;21803;53.586;10.040;2023-02-01T05:56:53;18.10;44.50
35680;DHT22;21803;53.586;10.040;2023-02-01T05:59:18;18.10;44.50
35680;DHT22;21803;53.586;10.040;2023-02-01T06:01:44;18.10;44.50
35680;DHT22;21803;53.586;10.040;2023-02-01T06:04:09;18.10;44.40
35680;DHT22;21803;53.586;10.040;2023-02-01T06:06:35;18.10;44.50
35680;DHT22;21803;53.586;10.040;2023-02-01T06:09:03;18.10;44.50
35680;DHT22;21803;53.586;10.040;2023-02-01T06:11:29;18.10;44.50
35680;DHT22;21803;53.586;10.040;2023-02-01T06:13:54;18.10;44.40
35680;DHT22;21803;53.586;10.040;2023-02-01T06:16:21;18.10;44.40
35680;DHT22;21803;53.586;10.040;2023-02-01T06:18:46;18.10;44.50
35680;DHT22;21803;53.586;10.040;2023-02-01T06:21:12;18.10;44.40
35680;DHT22;21803;53.586;10.040;2023-02-01T06:23:38;18.10;44.40
35680;DHT22;21803;53.586;10.040;2023-02-01T06:26:06;18.10;44.40
35680;DHT22;21803;53.586;10.040;2023-02-01T06:28:33;18.10;44.40
35680;DHT22;21803;53.586;10.040;2023-02-01T06:31:04;18.10;44.40
35680;DHT22;21803;53.586;10.040;2023-02-01T06:33:32;18.10;45.00
35680;DHT22;21803;53.586;10.040;2023-02-01T06:35:59;18.10;44.40
35680;DHT22;21803;53.586;10.040;2023-02-01T06:38:26;18.10;44.40
35680;DHT22;21803;53.586;10.040;2023-02-01T06:40:55;18.10;44.40
35680;DHT22;21803;53.586;10.040;2023-02-01T06:43:25;18.10;44.40
35680;DHT22;21803;53.586;10.040;2023-02-01T06:45:51;18.10;44.40
35680;DHT22;21803;53.586;10.040;2023-02-01T06:48:17;18.10;44.30
35680;DHT22;21803;53.586;10.040;2023-02-01T06:50:43;18.10;44.40
35680;DHT22;21803;53.586;10.040;2023-02-01T06:53:09;18.10;44.40
35680;DHT22;21803;53.586;10.040;2023-02-01T06:55:34;18.10;44.40
35680;DHT22;21803;53.586;10.040;2023-02-01T06:58:00;18.10;44.40
35680;DHT22;21803;53.586;10.040;2023-02-01T07:00:27;18.00;44.40
35680;DHT22;21803;53.586;10.040;2023-02-01T07:02:53;18.10;44.40
35680;DHT22;21803;53.586;10.040;2023-02-01T07:05:19;18.10;44.40
35680;DHT22;21803;53.586;10.040;2023-02-01T07:07:44;18.00;44.40
35680;DHT22;21803;53.586;10.040;2023-02-01T07:10:11;18.10;45.00
35680;DHT22;21803;53.586;10.040;2023-02-01T07:12:36;18.10;44.40
35680;DHT22;21803;53.586;10.040;2023-02-01T07:15:03;18.10;44.40
35680;DHT22;21803;53.586;10.040;2023-02-01T07:17:29;18.10;44.40
35680;DHT22;21803;53.586;10.040;2023-02-01T07:19:55;18.10;44.40
35680;DHT22;21803;53.586;10.040;2023-02-01T07:22:22;18.10;44.30
35680;DHT22;21803;53.586;10.040;2023-02-01T07:24:48;18.10;44.50
35680;DHT22;21803;53.586;10.040;2023-02-01T07:27:13;18.10;44.40
35680;DHT22;21803;53.586;10.040;2023-02-01T07:29:39;18.10;44.40
35680;DHT22;21803;53.586;10.040;2023-02-01T07:32:04;18.10;44.40
35680;DHT22;21803;53.586;10.040;2023-02-01T07:34:30;18.10;44.40
35680;DHT22;21803;53.586;10.040;2023-02-01T07:36:56;18.10;45.00
35680;DHT22;21803;53.586;10.040;2023-02-01T07:39:22;18.10;44.40
35680;DHT22;21803;53.586;10.040;2023-02-01T07:41:47;18.00;44.40
35680;DHT22;21803;53.586;10.040;2023-02-01T07:44:13;18.10;44.40
35680;DHT22;21803;53.586;10.040;2023-02-01T07:46:39;18.10;45.00
35680;DHT22;21803;53.586;10.040;2023-02-01T07:49:05;18.10;44.30
35680;DHT22;21803;53.586;10.040;2023-02-01T07:51:30;18.10;44.30
35680;DHT22;21803;53.586;10.040;2023-02-01T07:53:56;18.10;44.40
35680;DHT22;21803;53.586;10.040;2023-02-01T07:56:22;18.00;44.30
35680;DHT22;21803;53.586;10.040;2023-02-01T07:58:52;18.10;44.30
35680;DHT22;21803;53.586;10.040;2023-02-01T08:01:24;18.10;44.30
35680;DHT22;21803;53.586;10.040;2023-02-01T08:03:52;18.10;44.40
35680;DHT22;21803;53.586;10.040;2023-02-01T08:06:18;18.10;44.40
35680;DHT22;21803;53.586;10.040;2023-02-01T08:08:51;18.10;44.40
35680;DHT22;21803;53.586;10.040;2023-02-01T08:11:17;18.00;44.30
35680;DHT22;21803;53.586;10.040;2023-02-01T08:13:43;18.00;44.40
35680;DHT22;21803;53.586;10.040;2023-02-01T08:16:10;18.10;44.40
35680;DHT22;21803;53.586;10.040;2023-02-01T08:18:37;18.10;44.30
35680;DHT22;21803;53.586;10.040;2023-02-01T08:21:11;18.10;44.30
35680;DHT22;21803;53.586;10.040;2023-02-01T08:23:39;18.10;44.40
35680;DHT22;21803;53.586;10.040;2023-02-01T08:26:09;18.10;44.40
35680;DHT22;21803;53.586;10.040;2023-02-01T08:28:36;18.10;44.40
35680;DHT22;21803;53.586;10.040;2023-02-01T08:31:06;18.10;44.40
35680;DHT22;21803;53.586;10.040;2023-02-01T08:33:32;18.10;44.30
35680;DHT22;21803;53.586;10.040;2023-02-01T08:36:00;18.10;44.30
35680;DHT22;21803;53.586;10.040;2023-02-01T08:38:26;18.10;44.40
35680;DHT22;21803;53.586;10.040;2023-02-01T08:40:51;18.00;44.40
35680;DHT22;21803;53.586;10.040;2023-02-01T08:43:18;18.10;44.40
35680;DHT22;21803;53.586;10.040;2023-02-01T08:45:44;18.10;44.30
35680;DHT22;21803;53.586;10.040;2023-02-01T08:48:09;18.10;44.30
35680;DHT22;21803;53.586;10.040;2023-02-01T08:50:35;18.10;44.30
35680;DHT22;21803;53.586;10.040;2023-02-01T08:53:00;18.10;44.30
35680;DHT22;21803;53.586;10.040;2023-02-01T08:55:26;18.10;44.30
35680;DHT22;21803;53.586;10.040;2023-02-01T08:57:51;18.10;44.30
35680;DHT22;21803;53.586;10.040;2023-02-01T09:00:17;18.10;44.30
35680;DHT22;21803;53.586;10.040;2023-02-01T09:02:43;18.10;44.30
35680;DHT22;21803;53.586;10.040;2023-02-01T09:05:09;18.10;44.40
35680;DHT22;21803;53.586;10.040;2023-02-01T09:07:36;18.10;44.30
35680;DHT22;21803;53.586;10.040;2023-02-01T09:10:02;18.10;44.30
35680;DHT22;21803;53.586;10.040;2023-02-01T09:12:29;18.10;44.40
35680;DHT22;21803;53.586;10.040;2023-02-01T09:14:56;18.10;44.40
35680;DHT22;21803;53.586;10.040;2023-02-01T09:17:22;18.10;44.40
35680;DHT22;21803;53.586;10.040;2023-02-01T09:19:48;18.10;44.30
35680;DHT22;21803;53.586;10.040;2023-02-01T09:22:15;18.10;44.30
35680;DHT22;21803;53.586;10.040;2023-02-01T09:24:41;18.10;44.30
35680;DHT22;21803;53.586;10.040;2023-02-01T09:27:07;18.10;44.30
35680;DHT22;21803;53.586;10.040;2023-02-01T09:29:32;18.10;44.30
35680;DHT22;21803;53.586;10.040;2023-02-01T09:31:58;18.10;44.90
35680;DHT22;21803;53.586;10.040;2023-02-01T09:34:23;18.10;44.30
35680;DHT22;21803;53.586;10.040;2023-02-01T09:36:49;18.10;44.30
35680;DHT22;21803;53.586;10.040;2023-02-01T09:39:14;18.10;44.30
35680;DHT22;21803;53.586;10.040;2023-02-01T09:42:05;18.10;44.30
35680;DHT22;21803;53.586;10.040;2023-02-01T09:47:18;18.10;44.30
35680;DHT22;21803;53.586;10.040;2023-02-01T09:50:08;18.10;44.20
35680;DHT22;21803;53.586;10.040;2023-02-01T09:52:46;18.10;44.20
35680;DHT22;21803;53.586;10.040;2023-02-01T09:55:18;18.10;44.30
35680;DHT22;21803;53.586;10.040;2023-02-01T10:00:24;18.10;44.30
35680;DHT22;21803;53.586;10.040;2023-02-01T10:02:51;18.10;44.30
35680;DHT22;21803;53.586;10.040;2023-02-01T10:05:31;18.10;44.30
35680;DHT22;21803;53.586;10.040;2023-02-01T10:10:47;18.10;44.40
35680;DHT22;21803;53.586;10.040;2023-02-01T10:13:26;18.10;44.40
35680;DHT22;21803;53.586;10.040;2023-02-01T10:16:17;18.10;44.30
35680;DHT22;21803;53.586;10.040;2023-02-01T10:21:41;18.10;44.30
35680;DHT22;21803;53.586;10.040;2023-02-01T10:24:42;18.10;44.30
35680;DHT22;21803;53.586;10.040;2023-02-01T10:29:42;18.10;44.30
35680;DHT22;21803;53.586;10.040;2023-02-01T10:32:34;18.10;44.30
35680;DHT22;21803;53.586;10.040;2023-02-01T10:35:05;18.20;44.40
35680;DHT22;21803;53.586;10.040;2023-02-01T10:37:34;18.10;44.30
35680;DHT22;21803;53.586;10.040;2023-02-01T10:40:11;18.20;44.30
35680;DHT22;21803;53.586;10.040;2023-02-01T10:42:39;18.20;44.30
35680;DHT22;21803;53.586;10.040;2023-02-01T10:45:05;18.20;44.30
35680;DHT22;21803;53.586;10.040;2023-02-01T10:47:31;18.10;44.20
35680;DHT22;21803;53.586;10.040;2023-02-01T10:50:25;18.20;44.30
35680;DHT22;21803;53.586;10.040;2023-02-01T10:53:01;16.50;43.50
35680;DHT22;21803;53.586;10.040;2023-02-01T10:58:06;18.10;44.30
35680;DHT22;21803;53.586;10.040;2023-02-01T11:00:39;18.10;44.30
35680;DHT22;21803;53.586;10.040;2023-02-01T11:03:30;18.10;44.40
35680;DHT22;21803;53.586;10.040;2023-02-01T11:05:57;18.10;44.30
35680;DHT22;21803;53.586;10.040;2023-02-01T11:08:23;18.00;44.20
35680;DHT22;21803;53.586;10.040;2023-02-01T11:10:58;18.10;44.30
35680;DHT22;21803;53.586;10.040;2023-02-01T11:13:32;18.10;44.20
35680;DHT22;21803;53.586;10.040;2023-02-01T11:16:03;18.10;44.30
35680;DHT22;21803;53.586;10.040;2023-02-01T11:18:31;18.10;44.30
35680;DHT22;21803;53.586;10.040;2023-02-01T11:20:58;18.10;44.30
35680;DHT22;21803;53.586;10.040;2023-02-01T11:23:26;18.10;44.30
35680;DHT22;21803;53.586;10.040;2023-02-01T11:26:22;18.10;44.30
35680;DHT22;21803;53.586;10.040;2023-02-01T11:29:03;18.10;44.30
35680;DHT22;21803;53.586;10.040;2023-02-01T11:31:29;18.10;44.30
35680;DHT22;21803;53.586;10.040;2023-02-01T11:34:04;18.10;44.30
35680;DHT22;21803;53.586;10.040;2023-02-01T11:36:31;18.10;44.30
35680;DHT22;21803;53.586;10.040;2023-02-01T11:42:13;18.10;44.30
35680;DHT22;21803;53.586;10.040;2023-02-01T11:44:41;18.10;44.30
35680;DHT22;21803;53.586;10.040;2023-02-01T11:47:27;18.10;44.30
35680;DHT22;21803;53.586;10.040;2023-02-01T11:49:58;18.10;44.30
35680;DHT22;21803;53.586;10.040;2023-02-01T11:52:36;18.10;44.30
35680;DHT22;21803;53.586;10.040;2023-02-01T11:58:02;18.10;44.30
35680;DHT22;21803;53.586;10.040;2023-02-01T12:05:54;18.10;44.40
35680;DHT22;21803;53.586;10.040;2023-02-01T12:10:55;18.10;44.50
35680;DHT22;21803;53.586;10.040;2023-02-01T12:21:55;18.10;44.50
35680;DHT22;21803;53.586;10.040;2023-02-01T12:27:29;18.10;44.50
35680;DHT22;21803;53.586;10.040;2023-02-01T12:33:24;18.10;44.50
35680;DHT22;21803;53.586;10.040;2023-02-01T12:46:59;18.10;44.70
35680;DHT22;21803;53.586;10.040;2023-02-01T12:52:39;18.10;44.80
35680;DHT22;21803;53.586;10.040;2023-02-01T12:55:20;18.10;44.80
35680;DHT22;21803;53.586;10.040;2023-02-01T12:57:58;18.20;44.90
35680;DHT22;21803;53.586;10.040;2023-02-01T13:00:32;18.20;44.90
35680;DHT22;21803;53.586;10.040;2023-02-01T13:06:00;18.10;44.90
35680;DHT22;21803;53.586;10.040;2023-02-01T13:08:53;18.20;44.90
35680;DHT22;21803;53.586;10.040;2023-02-01T13:11:38;18.20;45.00
35680;DHT22;21803;53.586;10.040;2023-02-01T13:16:48;18.20;45.00
35680;DHT22;21803;53.586;10.040;2023-02-01T13:19:26;18.20;45.00
35680;DHT22;21803;53.586;10.040;2023-02-01T13:21:57;18.10;45.00
35680;DHT22;21803;53.586;10.040;2023-02-01T13:24:36;18.20;45.00
35680;DHT22;21803;53.586;10.040;2023-02-01T13:27:03;18.20;45.00
35680;DHT22;21803;53.586;10.040;2023-02-01T13:29:29;18.20;45.00
35680;DHT22;21803;53.586;10.040;2023-02-01T13:36:00;18.20;45.00
35680;DHT22;21803;53.586;10.040;2023-02-01T13:41:05;18.20;45.60
35680;DHT22;21803;53.586;10.040;2023-02-01T13:43:33;18.20;45.00
35680;DHT22;21803;53.586;10.040;2023-02-01T13:46:05;18.20;45.00
35680;DHT22;21803;53.586;10.040;2023-02-01T13:48:47;18.20;45.00
35680;DHT22;21803;53.586;10.040;2023-02-01T13:51:15;18.20;45.00
35680;DHT22;21803;53.586;10.040;2023-02-01T13:53:46;18.20;45.00
35680;DHT22;21803;53.586;10.040;2023-02-01T13:56:18;18.20;45.00
35680;DHT22;21803;53.586;10.040;2023-02-01T13:58:46;18.20;45.00
35680;DHT22;21803;53.586;10.040;2023-02-01T14:01:35;18.20;45.00
35680;DHT22;21803;53.586;10.040;2023-02-01T14:04:06;18.20;45.10
35680;DHT22;21803;53.586;10.040;2023-02-01T14:06:53;18.20;45.00
35680;DHT22;21803;53.586;10.040;2023-02-01T14:09:33;18.20;45.10
35680;DHT22;21803;53.586;10.040;2023-02-01T14:15:24;18.20;45.10
35680;DHT22;21803;53.586;10.040;2023-02-01T14:17:51;18.20;45.10
35680;DHT22;21803;53.586;10.040;2023-02-01T14:20:42;18.20;45.10
35680;DHT22;21803;53.586;10.040;2023-02-01T14:23:18;18.20;45.10
35680;DHT22;21803;53.586;10.040;2023-02-01T14:25:44;18.20;45.10
35680;DHT22;21803;53.586;10.040;2023-02-01T14:28:12;18.20;45.00
35680;DHT22;21803;53.586;10.040;2023-02-01T14:30:46;18.20;45.10
35680;DHT22;21803;53.586;10.040;2023-02-01T14:33:20;18.20;45.10
35680;DHT22;21803;53.586;10.040;2023-02-01T14:36:00;18.20;45.20
35680;DHT22;21803;53.586;10.040;2023-02-01T14:38:27;18.10;45.10
35680;DHT22;21803;53.586;10.040;2023-02-01T14:41:26;18.20;45.10
35680;DHT22;21803;53.586;10.040;2023-02-01T14:44:21;18.20;45.20
35680;DHT22;21803;53.586;10.040;2023-02-01T14:47:08;18.20;45.10
35680;DHT22;21803;53.586;10.040;2023-02-01T14:50:02;18.20;45.10
35680;DHT22;21803;53.586;10.040;2023-02-01T14:52:34;18.10;45.00
35680;DHT22;21803;53.586;10.040;2023-02-01T14:55:06;18.10;45.00
35680;DHT22;21803;53.586;10.040;2023-02-01T14:57:36;18.10;45.00
35680;DHT22;21803;53.586;10.040;2023-02-01T15:00:14;18.10;45.00
35680;DHT22;21803;53.586;10.040;2023-02-01T15:02:43;18.10;45.00
35680;DHT22;21803;53.586;10.040;2023-02-01T15:05:24;18.10;45.00
35680;DHT22;21803;53.586;10.040;2023-02-01T15:07:51;18.10;45.00
35680;DHT22;21803;53.586;10.040;2023-02-01T15:10:18;18.20;45.10
35680;DHT22;21803;53.586;10.040;2023-02-01T15:12:45;18.20;45.10
35680;DHT22;21803;53.586;10.040;2023-02-01T15:15:18;18.10;45.00
35680;DHT22;21803;53.586;10.040;2023-02-01T15:17:57;18.10;45.00
35680;DHT22;21803;53.586;10.040;2023-02-01T15:20:30;18.10;45.00
35680;DHT22;21803;53.586;10.040;2023-02-01T15:23:02;18.10;45.00
35680;DHT22;21803;53.586;10.040;2023-02-01T15:25:38;18.20;45.00
35680;DHT22;21803;53.586;10.040;2023-02-01T15:28:05;18.10;45.00
35680;DHT22;21803;53.586;10.040;2023-02-01T15:30:33;18.10;45.00
35680;DHT22;21803;53.586;10.040;2023-02-01T15:38:20;18.00;44.90
35680;DHT22;21803;53.586;10.040;2023-02-01T15:41:05;18.10;44.90
35680;DHT22;21803;53.586;10.040;2023-02-01T15:46:11;18.10;44.90
35680;DHT22;21803;53.586;10.040;2023-02-01T15:48:49;18.10;44.90
35680;DHT22;21803;53.586;10.040;2023-02-01T15:51:21;18.20;44.90
35680;DHT22;21803;53.586;10.040;2023-02-01T15:53:59;18.10;44.90
35680;DHT22;21803;53.586;10.040;2023-02-01T15:56:34;18.20;45.00
35680;DHT22;21803;53.586;10.040;2023-02-01T15:59:02;18.10;44.90
35680;DHT22;21803;53.586;10.040;2023-02-01T16:01:29;18.20;44.90
35680;DHT22;21803;53.586;10.040;2023-02-01T16:06:57;18.10;44.90
35680;DHT22;21803;53.586;10.040;2023-02-01T16:09:25;18.10;44.90
35680;DHT22;21803;53.586;10.040;2023-02-01T16:12:01;18.10;44.90
35680;DHT22;21803;53.586;10.040;2023-02-01T16:14:27;18.10;44.90
35680;DHT22;21803;53.586;10.040;2023-02-01T16:16:55;18.10;44.90
35680;DHT22;21803;53.586;10.040;2023-02-01T16:19:21;18.10;44.90
35680;DHT22;21803;53.586;10.040;2023-02-01T16:21:50;18.10;44.90
35680;DHT22;21803;53.586;10.040;2023-02-01T16:24:15;18.10;44.90
35680;DHT22;21803;53.586;10.040;2023-02-01T16:26:41;18.10;44.90
35680;DHT22;21803;53.586;10.040;2023-02-01T16:29:07;18.10;44.90
35680;DHT22;21803;53.586;10.040;2023-02-01T16:31:36;18.10;44.90
35680;DHT22;21803;53.586;10.040;2023-02-01T16:34:03;18.10;44.90
35680;DHT22;21803;53.586;10.040;2023-02-01T16:36:29;18.10;44.90
35680;DHT22;21803;53.586;10.040;2023-02-01T16:38:55;18.10;44.90
35680;DHT22;21803;53.586;10.040;2023-02-01T16:41:22;18.10;44.80
35680;DHT22;21803;53.586;10.040;2023-02-01T16:43:50;18.10;44.90
35680;DHT22;21803;53.586;10.040;2023-02-01T16:46:19;18.10;44.90
35680;DHT22;21803;53.586;10.040;2023-02-01T16:48:51;18.10;44.90
35680;DHT22;21803;53.586;10.040;2023-02-01T16:51:17;18.20;44.90
35680;DHT22;21803;53.586;10.040;2023-02-01T16:53:44;18.10;44.80
35680;DHT22;21803;53.586;10.040;2023-02-01T16:56:17;18.10;44.80
35680;DHT22;21803;53.586;10.040;2023-02-01T16:58:43;18.10;44.80
35680;DHT22;21803;53.586;10.040;2023-02-01T17:01:13;18.10;44.80
35680;DHT22;21803;53.586;10.040;2023-02-01T17:03:41;18.10;44.80
35680;DHT22;21803;53.586;10.040;2023-02-01T17:06:10;18.10;44.80
35680;DHT22;21803;53.586;10.040;2023-02-01T17:08:38;18.10;45.40
35680;DHT22;21803;53.586;10.040;2023-02-01T17:11:06;18.10;44.90
35680;DHT22;21803;53.586;10.040;2023-02-01T17:13:33;18.10;44.80
35680;DHT22;21803;53.586;10.040;2023-02-01T17:16:02;18.10;44.80
35680;DHT22;21803;53.586;10.040;2023-02-01T17:18:31;18.10;44.80
35680;DHT22;21803;53.586;10.040;2023-02-01T17:20:58;18.10;44.80
35680;DHT22;21803;53.586;10.040;2023-02-01T17:23:25;18.10;44.80
35680;DHT22;21803;53.586;10.040;2023-02-01T17:25:50;18.10;44.80
35680;DHT22;21803;53.586;10.040;2023-02-01T17:28:16;18.10;44.80